Time;durP1;ratioP1;P1;durP2;ratioP2;P2;SDS_P1;SDS_P2;PMS_P1;PMS_P2;Temp;Humidity;BMP_temperature;BMP_pressure;BME280_temperature;BME280_humidity;BME280_pressure;Samples;Min_cycle;Max_cycle;Signal;HPM_P1;HPM_P2
2022/07/12 00:05:17;;;;;;;0.85;0.50;;;;;;;;;;20976764;28;20285;-76
2022/07/12 00:15:20;;;;;;;0.52;0.40;;;;;;;;;;20975260;28;20213;-76
2022/07/12 00:25:21;;;;;;;0.70;0.40;;;22.30;99.90;;;;;;20959338;28;20597;-76
2022/07/12 00:35:23;;;;;;;2.15;0.50;;;;;;;;;;20957395;28;20211;-76
2022/07/12 00:45:25;;;;;;;0.30;0.30;;;;;;;;;;20973119;28;20234;-76
2022/07/12 00:55:27;;;;;;;1.25;0.30;;;;;;;;;;20955642;28;20221;-76
2022/07/12 01:05:30;;;;;;;0.75;0.45;;;;;;;;;;20955015;28;20250;-76
2022/07/12 01:15:32;;;;;;;2.28;0.50;;;;;;;;;;20972094;28;20299;-76
2022/07/12 01:25:34;;;;;;;1.65;0.50;;;;;;;;;;20954008;28;20218;-76
2022/07/12 01:35:36;;;;;;;1.30;0.32;;;;;;;;;;20970034;28;20231;-76
2022/07/12 01:45:39;;;;;;;0.55;0.30;;;;;;;;;;20953555;28;20258;-76
2022/07/12 01:55:41;;;;;;;9.50;1.02;;;;;;;;;;20974672;28;20271;-76
2022/07/12 02:05:43;;;;;;;0.50;0.35;;;;;;;;;;20969118;28;20753;-76
2022/07/12 02:15:45;;;;;;;0.70;0.40;;;;;;;;;;20969591;28;20202;-76
2022/07/12 02:25:47;;;;;;;1.45;0.50;;;;;;;;;;20967363;28;20295;-76
2022/07/12 02:35:49;;;;;;;0.65;0.40;;;;;;;;;;20983229;28;20204;-76
2022/07/12 02:45:51;;;;;;;0.80;0.40;;;;;;;;;;20967016;28;20703;-76
2022/07/12 02:55:53;;;;;;;0.50;0.30;;;;;;;;;;20768034;23;20234;-74
2022/07/12 03:05:56;;;;;;;1.35;0.47;;;;;;;;;;20752110;28;20270;-75
2022/07/12 03:15:57;;;;;;;0.50;0.40;;;;;;;;;;20749750;28;20580;-75
2022/07/12 03:26:00;;;;;;;1.77;0.33;;;;;;;;;;20750009;28;20706;-75
2022/07/12 03:36:01;;;;;;;1.23;0.50;;;;;;;;;;20747712;28;20239;-75
2022/07/12 03:46:03;;;;;;;0.70;0.40;;;;;;;;;;20748750;28;20230;-75
2022/07/12 03:56:08;;;;;;;2.25;0.63;;;;;;;;;;20745706;28;20240;-75
2022/07/12 04:06:10;;;;;;;1.67;0.90;;;;;;;;;;20745922;28;20218;-75
2022/07/12 04:16:12;;;;;;;0.80;0.47;;;;;;;;;;20743813;28;20688;-75
2022/07/12 04:26:13;;;;;;;0.60;0.40;;;;;;;;;;20739648;28;20683;-75
2022/07/12 04:36:15;;;;;;;1.10;0.60;;;;;;;;;;20744837;28;20271;-75
2022/07/12 04:46:17;;;;;;;0.77;0.57;;;;;;;;;;20713976;28;20698;-75
2022/07/12 04:56:18;;;;;;;1.53;0.80;;;;;;;;;;20741198;28;20226;-75
2022/07/12 05:06:20;;;;;;;0.90;0.67;;;;;;;;;;20756746;28;20626;-75
2022/07/12 05:16:22;;;;;;;1.37;0.50;;;;;;;;;;20729074;28;20636;-75
2022/07/12 05:26:24;;;;;;;1.70;0.80;;;;;;;;;;20751922;28;20225;-75
2022/07/12 05:36:26;;;;;;;0.80;0.50;;;;;;;;;;20737269;28;20212;-75
2022/07/12 05:46:27;;;;;;;1.30;0.70;;;;;;;;;;20755486;28;20221;-76
2022/07/12 05:56:29;;;;;;;3.70;0.70;;;;;;;;;;20740353;28;20696;-76
2022/07/12 06:06:31;;;;;;;1.00;0.50;;;;;;;;;;20739639;28;20215;-76
2022/07/12 06:16:33;;;;;;;0.90;0.60;;;;;;;;;;20739220;28;20685;-76
2022/07/12 06:26:34;;;;;;;2.27;0.67;;;;;;;;;;20737771;28;20215;-77
2022/07/12 06:36:36;;;;;;;2.00;0.60;;;;;;;;;;20752495;28;20684;-76
2022/07/12 06:46:38;;;;;;;1.33;0.70;;;;;;;;;;20765197;28;20291;-77
2022/07/12 06:56:39;;;;;;;3.83;0.75;;;;;;;;;;20752014;28;20262;-76
2022/07/12 07:06:41;;;;;;;2.60;2.00;;;;;;;;;;20750269;28;20275;-76
2022/07/12 07:16:43;;;;;;;1.38;0.80;;;;;;;;;;20750370;28;20673;-75
2022/07/12 07:26:44;;;;;;;1.23;0.70;;;;;;;;;;20748491;28;20250;-76
2022/07/12 07:36:46;;;;;;;1.02;0.65;;;;;;;;;;20764844;28;20288;-76
2022/07/12 07:46:48;;;;;;;1.45;0.70;;;;;;;;;;20764052;28;20223;-76
2022/07/12 07:56:50;;;;;;;6.75;1.13;;;;;;;;;;20748697;28;20219;-77
2022/07/12 08:06:52;;;;;;;0.75;0.52;;;;;;;;;;20747491;28;20221;-76
2022/07/12 08:16:53;;;;;;;1.33;0.60;;;;;;;;;;20760055;28;20574;-76
2022/07/12 08:26:55;;;;;;;0.47;0.40;;;;;;;;;;20745259;28;20748;-76
2022/07/12 08:36:57;;;;;;;0.43;0.40;;;;;;;;;;20760437;28;20264;-77
2022/07/12 08:46:59;;;;;;;0.55;0.40;;;;;;;;;;20759728;28;20219;-76
2022/07/12 08:57:00;;;;;;;0.80;0.50;;;;;;;;;;20833293;22;20569;-77
2022/07/12 09:07:15;;;;;;;0.82;0.50;;;;;;;;;;20807448;28;20586;-77
2022/07/12 09:17:21;;;;;;;0.40;0.30;;;;;;;;;;20831642;28;20204;-76
2022/07/12 09:27:26;;;;;;;1.30;0.60;;;;;;;;;;20832889;28;20748;-77
2022/07/12 09:37:28;;;;;;;0.45;0.30;;;;;;;;;;20827676;28;20228;-75
2022/07/12 09:47:30;;;;;;;0.32;0.28;;;25.30;99.90;;;;;;20824575;28;20226;-77
2022/07/12 09:57:32;;;;;;;0.40;0.38;;;;;;;;;;20838781;28;20208;-77
2022/07/12 10:07:34;;;;;;;0.40;0.30;;;;;;;;;;20830119;28;20216;-77
2022/07/12 10:17:38;;;;;;;0.25;0.25;;;;;;;;;;20833753;28;20259;-77
2022/07/12 10:27:40;;;;;;;0.30;0.30;;;;;;;;;;20844737;28;20221;-77
2022/07/12 10:37:42;;;;;;;3.72;0.60;;;;;;;;;;20826811;28;20212;-77
2022/07/12 10:47:54;;;;;;;0.30;0.30;;;;;;;;;;20843579;28;20215;-77
2022/07/12 10:57:56;;;;;;;0.43;0.30;;;;;;;;;;20832859;28;20283;-75
2022/07/12 11:08:16;;;;;;;0.30;0.30;;;;;;;;;;20749476;28;20695;-76
2022/07/12 11:18:31;;;;;;;0.40;0.30;;;27.10;83.10;;;;;;20747803;28;20240;-76
2022/07/12 11:28:33;;;;;;;1.08;0.38;;;;;;;;;;20745521;28;20759;-77
2022/07/12 11:38:46;;;;;;;3.50;0.47;;;27.00;95.20;;;;;;20746035;28;20587;-77
2022/07/12 11:48:48;;;;;;;0.30;0.22;;;;;;;;;;20728670;28;20599;-77
2022/07/12 11:58:56;;;;;;;19.10;2.40;;;27.80;91.80;;;;;;20743637;28;20263;-76
2022/07/12 12:09:05;;;;;;;0.30;0.30;;;27.60;93.70;;;;;;20744413;28;20215;-76
2022/07/12 12:19:11;;;;;;;1.80;0.38;;;;;;;;;;20741390;28;20265;-75
2022/07/12 12:29:13;;;;;;;0.35;0.20;;;;;;;;;;20743295;28;20222;-75
2022/07/12 12:39:29;;;;;;;0.20;0.20;;;28.00;88.20;;;;;;20743829;28;20534;-77
2022/07/12 12:49:51;;;;;;;0.30;0.30;;;28.50;87.60;;;;;;20753518;28;20248;-77
2022/07/12 12:59:53;;;;;;;0.30;0.30;;;28.70;87.90;;;;;;20822735;28;20556;-77
2022/07/12 13:09:55;;;;;;;0.25;0.25;;;;;;;;;;20826935;28;20213;-77
2022/07/12 13:19:57;;;;;;;0.20;0.20;;;;;;;;;;20827244;28;20267;-79
2022/07/12 13:29:58;;;;;;;3.50;0.30;;;;;;;;;;20828648;28;20221;-79
2022/07/12 13:40:16;;;;;;;0.70;0.25;;;;;;;;;;20824094;28;20260;-79
2022/07/12 13:50:19;;;;;;;1.08;0.40;;;29.00;85.50;;;;;;20816946;28;20222;-77
2022/07/12 14:00:21;;;;;;;0.40;0.20;;;;;;;;;;20837455;28;20201;-77
2022/07/12 14:10:23;;;;;;;0.35;0.25;;;;;;;;;;20840948;28;20248;-75
2022/07/12 14:20:24;;;;;;;1.30;0.40;;;;;;;;;;20836772;28;20276;-74
2022/07/12 14:30:26;;;;;;;0.30;0.20;;;;;;;;;;20835297;28;20734;-76
2022/07/12 14:40:28;;;;;;;0.15;0.10;;;;;;;;;;20845530;28;20458;-77
2022/07/12 14:50:30;;;;;;;0.20;0.10;;;;;;;;;;20843034;28;20230;-77
2022/07/12 15:00:31;;;;;;;0.20;0.20;;;;;;;;;;20820248;28;20215;-77
2022/07/12 15:10:33;;;;;;;1.83;0.22;;;;;;;;;;20836423;28;20705;-77
2022/07/12 15:20:35;;;;;;;6.78;0.70;;;;;;;;;;20833261;28;20686;-75
2022/07/12 15:30:37;;;;;;;0.73;0.30;;;;;;;;;;20833116;28;20630;-76
2022/07/12 15:40:38;;;;;;;0.47;0.25;;;;;;;;;;20829831;28;20643;-77
2022/07/12 15:50:41;;;;;;;0.65;0.20;;;;;;;;;;20828778;28;20787;-77
2022/07/12 16:00:42;;;;;;;0.20;0.20;;;;;;;;;;20829096;28;20206;-77
2022/07/12 16:10:44;;;;;;;0.88;0.32;;;;;;;;;;20827581;28;20241;-77
2022/07/12 16:20:47;;;;;;;0.20;0.20;;;;;;;;;;20834957;28;20658;-77
2022/07/12 16:30:48;;;;;;;0.30;0.20;;;;;;;;;;20843690;28;20214;-76
2022/07/12 16:40:50;;;;;;;0.30;0.20;;;;;;;;;;20843097;28;20698;-77
2022/07/12 17:01:12;;;;;;;0.22;0.20;;;;;;;;;;20857513;28;20225;-77
2022/07/12 17:11:14;;;;;;;0.20;0.20;;;;;;;;;;20823475;28;20588;-77
2022/07/12 17:21:16;;;;;;;0.30;0.20;;;;;;;;;;20804841;28;20271;-77
2022/07/12 17:31:43;;;;;;;0.20;0.20;;;;;;;;;;20795478;28;20260;-77
2022/07/12 17:41:45;;;;;;;0.20;0.20;;;;;;;;;;20823869;28;20197;-76
2022/07/12 17:51:47;;;;;;;0.40;0.20;;;;;;;;;;20821389;28;20275;-76
2022/07/12 18:01:49;;;;;;;0.65;0.30;;;;;;;;;;20822338;28;20263;-77
2022/07/12 18:22:11;;;;;;;2.38;0.50;;;;;;;;;;20817522;28;20217;-74
2022/07/12 18:32:12;;;;;;;0.65;0.40;;;;;;;;;;20813382;28;20279;-74
2022/07/12 18:42:14;;;;;;;1.85;0.22;;;;;;;;;;20827121;28;20236;-74
2022/07/12 18:52:16;;;;;;;0.60;0.20;;;;;;;;;;20830556;28;20225;-74
2022/07/12 19:02:19;;;;;;;0.22;0.22;;;;;;;;;;20827658;28;20233;-76
2022/07/12 19:12:21;;;;;;;4.35;0.47;;;;;;;;;;20826170;28;20245;-74
2022/07/12 19:22:23;;;;;;;0.30;0.20;;;;;;;;;;20820915;28;20756;-74
2022/07/12 19:32:25;;;;;;;0.63;0.25;;;;;;;;;;20820502;28;20220;-74
2022/07/12 19:42:27;;;;;;;0.30;0.20;;;;;;;;;;20818762;28;20284;-74
2022/07/12 19:52:29;;;;;;;0.35;0.20;;;;;;;;;;20815680;28;20290;-74
2022/07/12 20:02:32;;;;;;;2.55;0.40;;;;;;;;;;20800998;28;20221;-74
2022/07/12 20:12:33;;;;;;;0.88;0.40;;;;;;;;;;20802446;28;20221;-74
2022/07/12 20:22:36;;;;;;;1.90;0.50;;;;;;;;;;20812353;28;20240;-74
2022/07/12 20:34:25;;;;;;;0.40;0.30;;;;;;;;;;20818085;28;20596;-74
2022/07/12 20:43:00;;;;;;;0.85;0.47;;;;;;;;;;20816324;28;20214;-74
2022/07/12 20:53:02;;;;;;;0.90;0.38;;;;;;;;;;20816892;28;20612;-74
2022/07/12 21:03:03;;;;;;;0.55;0.38;;;;;;;;;;20812580;28;20260;-76
2022/07/12 21:13:05;;;;;;;0.22;0.20;;;;;;;;;;20819291;28;20279;-74
2022/07/12 21:23:07;;;;;;;0.55;0.35;;;;;;;;;;20788523;28;20212;-74
2022/07/12 21:33:09;;;;;;;2.78;0.30;;;;;;;;;;20820731;28;20326;-73
2022/07/12 21:43:11;;;;;;;1.13;0.38;;;;;;;;;;20822288;28;20753;-74
2022/07/12 21:53:13;;;;;;;0.45;0.38;;;;;;;;;;20818745;28;20780;-74
2022/07/12 22:03:15;;;;;;;0.82;0.40;;;;;;;;;;20820119;28;20229;-74
2022/07/12 22:13:17;;;;;;;0.28;0.28;;;;;;;;;;20791863;28;20223;-74
2022/07/12 22:23:19;;;;;;;1.02;0.50;;;;;;;;;;20818755;28;20259;-74
2022/07/12 22:33:22;;;;;;;1.30;0.50;;;25.10;96.70;;;;;;20817716;28;20585;-74
2022/07/12 22:43:23;;;;;;;1.00;0.40;;;;;;;;;;20833809;28;20676;-74
2022/07/12 22:53:27;;;;;;;1.05;0.55;;;;;;;;;;20833641;28;20217;-74
2022/07/12 23:03:29;;;;;;;0.63;0.40;;;;;;;;;;20831704;28;20205;-74
2022/07/12 23:13:31;;;;;;;2.15;0.40;;;;;;;;;;20833779;28;20229;-74
2022/07/12 23:23:33;;;;;;;0.65;0.45;;;24.30;98.90;;;;;;20829793;28;20287;-74
2022/07/12 23:33:35;;;;;;;1.70;0.60;;;;;;;;;;20829231;28;20208;-74
2022/07/12 23:43:37;;;;;;;0.88;0.40;;;;;;;;;;20828905;28;20214;-74
2022/07/12 23:53:40;;;;;;;0.30;0.30;;;;;;;;;;20811098;28;20592;-74
